createdAt,value
2019-02-07T00:01:30.208Z,95591.05
2019-02-07T00:03:59.941Z,95590.42
2019-02-07T00:06:29.605Z,95590.42
2019-02-07T00:09:00.219Z,95587.55
2019-02-07T00:11:30.004Z,95590.05
2019-02-07T00:13:59.868Z,95588.08
2019-02-07T00:16:29.647Z,95592.62
2019-02-07T00:18:59.497Z,95592.62
2019-02-07T00:21:29.127Z,95587.83
2019-02-07T00:23:58.774Z,95587.83
2019-02-07T00:26:28.461Z,95589.75
2019-02-07T00:28:58.302Z,95594.23
2019-02-07T00:31:28.167Z,95594.09
2019-02-07T00:33:57.825Z,95587.86
2019-02-07T00:36:27.500Z,95581.75
2019-02-07T00:38:57.234Z,95589.28
2019-02-07T00:41:26.862Z,95589.28
2019-02-07T00:43:57.096Z,95588.79
2019-02-07T00:46:26.731Z,95583.98
2019-02-07T00:48:56.304Z,95578.84
2019-02-07T00:51:25.931Z,95578.35
2019-02-07T00:53:55.807Z,95574.33
2019-02-07T00:56:25.450Z,95574.33
2019-02-07T00:58:55.057Z,95565.34
2019-02-07T01:01:24.718Z,95576.08
2019-02-07T01:03:54.731Z,95577.89
2019-02-07T01:06:24.403Z,95577.89
2019-02-07T01:08:54.158Z,95565.34
2019-02-07T01:11:23.869Z,95573.29
2019-02-07T01:13:53.677Z,95569.41
2019-02-07T01:16:23.352Z,95559.45
2019-02-07T01:18:52.992Z,95559.45
2019-02-07T01:21:22.556Z,95564.44
2019-02-07T01:23:52.519Z,95566.81
2019-02-07T01:26:22.712Z,95576.20
2019-02-07T01:28:52.481Z,95576.20
2019-02-07T01:31:22.107Z,95572.23
2019-02-07T01:33:51.824Z,95567.89
2019-02-07T01:36:21.571Z,95567.53
2019-02-07T01:38:51.345Z,95570.06
2019-02-07T01:41:21.148Z,95564.67
2019-02-07T01:43:50.960Z,95564.67
2019-02-07T01:46:20.588Z,95570.09
2019-02-07T01:48:50.310Z,95567.20
2019-02-07T01:51:19.869Z,95556.64
2019-02-07T01:53:49.661Z,95572.98
2019-02-07T01:56:19.618Z,95564.52
2019-02-07T01:58:49.238Z,95572.52
2019-02-07T02:01:18.911Z,95575.52
2019-02-07T02:03:48.595Z,95575.52
2019-02-07T02:06:18.312Z,95568.55
2019-02-07T02:08:47.969Z,95562.34
2019-02-07T02:11:17.759Z,95562.34
2019-02-07T02:13:47.374Z,95574.80
2019-02-07T02:16:17.139Z,95576.67
2019-02-07T02:18:46.732Z,95577.29
2019-02-07T02:21:16.498Z,95567.77
2019-02-07T02:23:46.147Z,95567.77
2019-02-07T02:26:15.738Z,95569.70
2019-02-07T02:28:45.407Z,95569.70
2019-02-07T02:31:15.452Z,95566.42
2019-02-07T02:33:45.083Z,95576.38
2019-02-07T02:36:14.812Z,95572.06
2019-02-07T02:38:44.440Z,95570.00
2019-02-07T02:41:14.477Z,95572.57
2019-02-07T02:43:44.259Z,95579.75
2019-02-07T02:46:14.128Z,95577.18
2019-02-07T02:48:43.883Z,95577.18
2019-02-07T02:51:13.486Z,95576.00
2019-02-07T02:53:43.581Z,95573.81
2019-02-07T02:56:13.153Z,95575.20
2019-02-07T02:58:42.902Z,95575.97
2019-02-07T03:01:31.718Z,95575.97
2019-02-07T03:04:32.324Z,95572.20
2019-02-07T03:07:31.166Z,95586.96
2019-02-07T03:10:14.211Z,95579.23
2019-02-07T03:13:12.026Z,95579.23
2019-02-07T03:15:58.975Z,95584.06
2019-02-07T03:18:47.770Z,95582.93
2019-02-07T03:21:36.786Z,95594.52
2019-02-07T03:24:24.425Z,95594.52
2019-02-07T03:27:16.278Z,95596.32
2019-02-07T03:30:03.767Z,95596.32
2019-02-07T03:33:04.328Z,95600.83
2019-02-07T03:36:08.293Z,95602.04
2019-02-07T03:39:09.256Z,95606.31
2019-02-07T03:41:57.902Z,95606.31
2019-02-07T03:44:49.859Z,95600.17
2019-02-07T03:47:47.452Z,95600.17
2019-02-07T03:50:34.908Z,95603.66
2019-02-07T03:53:22.239Z,95609.69
2019-02-07T03:56:10.450Z,95617.81
2019-02-07T03:58:51.882Z,95609.44
2019-02-07T04:01:40.378Z,95610.91
2019-02-07T04:04:28.001Z,95606.55
2019-02-07T04:07:19.650Z,95607.16
2019-02-07T04:10:02.983Z,95604.31
2019-02-07T04:12:57.442Z,95604.31
2019-02-07T04:15:44.739Z,95600.03
2019-02-07T04:18:51.657Z,95595.55
2019-02-07T04:21:38.739Z,95595.55
2019-02-07T04:24:25.962Z,95588.67
2019-02-07T04:27:13.164Z,95580.05
2019-02-07T04:29:50.301Z,95580.05
2019-02-07T04:32:44.622Z,95594.50
2019-02-07T04:35:33.040Z,95594.50
2019-02-07T04:38:24.633Z,95593.98
2019-02-07T04:41:18.501Z,95591.78
2019-02-07T04:44:07.247Z,95599.22
2019-02-07T04:47:07.801Z,95599.22
2019-02-07T04:50:02.728Z,95596.17
2019-02-07T04:52:55.406Z,95596.17
2019-02-07T04:55:53.099Z,95594.06
2019-02-07T04:58:41.583Z,95594.06
2019-02-07T05:01:28.937Z,95594.02
2019-02-07T05:04:10.481Z,95589.95
2019-02-07T05:07:11.217Z,95587.95
2019-02-07T05:10:00.942Z,95581.24
2019-02-07T05:12:44.729Z,95581.21
2019-02-07T05:15:48.443Z,95578.65
2019-02-07T05:18:36.195Z,95582.13
2019-02-07T05:21:30.617Z,95586.30
2019-02-07T05:24:22.431Z,95586.30
2019-02-07T05:27:06.171Z,95588.64
2019-02-07T05:29:54.849Z,95588.64
2019-02-07T05:32:52.384Z,95590.91
2019-02-07T05:35:53.455Z,95575.02
2019-02-07T05:38:41.919Z,95575.02
2019-02-07T05:41:27.322Z,95586.52
2019-02-07T05:44:30.957Z,95582.86
2019-02-07T05:47:19.267Z,95582.59
2019-02-07T05:50:06.049Z,95589.70
2019-02-07T05:53:01.776Z,95583.62
2019-02-07T05:55:48.913Z,95586.05
2019-02-07T05:58:37.674Z,95586.05
2019-02-07T06:01:24.995Z,95578.86
2019-02-07T06:04:09.692Z,95578.86
2019-02-07T06:07:10.822Z,95575.04
2019-02-07T06:10:08.240Z,95575.04
2019-02-07T06:13:01.229Z,95574.39
2019-02-07T06:16:00.304Z,95576.62
2019-02-07T06:18:52.017Z,95576.62
2019-02-07T06:21:43.386Z,95579.05
2019-02-07T06:24:35.298Z,95579.05
2019-02-07T06:27:22.846Z,95588.53
2019-02-07T06:30:17.647Z,95588.53
2019-02-07T06:33:05.281Z,95589.78
2019-02-07T06:35:53.862Z,95589.41
2019-02-07T06:38:34.811Z,95586.13
2019-02-07T06:41:22.603Z,95599.20
2019-02-07T06:44:10.501Z,95596.20
2019-02-07T06:47:13.567Z,95598.45
2019-02-07T06:50:10.952Z,95609.11
2019-02-07T06:53:02.651Z,95611.27
2019-02-07T06:56:06.427Z,95610.97
2019-02-07T06:58:55.356Z,95625.72
2019-02-07T07:01:53.451Z,95622.12
2019-02-07T07:04:40.945Z,95629.98
2019-02-07T07:07:33.286Z,95632.38
2019-02-07T07:10:30.961Z,95627.17
2019-02-07T07:13:18.022Z,95634.95
2019-02-07T07:16:05.387Z,95631.42
2019-02-07T07:18:52.683Z,95629.75
2019-02-07T07:21:39.768Z,95627.06
2019-02-07T07:24:28.275Z,95624.42
2019-02-07T07:27:19.842Z,95630.02
2019-02-07T07:30:11.724Z,95620.39
2019-02-07T07:33:02.514Z,95618.93
2019-02-07T07:35:57.138Z,95620.49
2019-02-07T07:38:44.697Z,95614.88
2019-02-07T07:41:32.697Z,95613.47
2019-02-07T07:44:20.327Z,95617.73
2019-02-07T07:47:07.266Z,95620.30
2019-02-07T07:49:54.957Z,95629.67
2019-02-07T07:52:52.707Z,95631.39
2019-02-07T07:55:50.064Z,95631.39
2019-02-07T07:58:50.544Z,95635.70
2019-02-07T08:01:42.452Z,95640.80
2019-02-07T08:04:40.326Z,95640.31
2019-02-07T08:07:31.479Z,95641.56
2019-02-07T08:10:18.176Z,95634.27
2019-02-07T08:13:07.061Z,95635.31
2019-02-07T08:15:58.770Z,95636.76
2019-02-07T08:18:50.856Z,95637.31
2019-02-07T08:21:33.940Z,95631.02
2019-02-07T08:24:22.032Z,95631.02
2019-02-07T08:27:16.617Z,95635.48
2019-02-07T08:30:13.870Z,95632.09
2019-02-07T08:33:00.436Z,95644.91
2019-02-07T08:35:47.601Z,95635.91
2019-02-07T08:38:35.214Z,95634.20
2019-02-07T08:41:22.749Z,95634.89
2019-02-07T08:44:15.809Z,95630.72
2019-02-07T08:47:16.669Z,95626.12
2019-02-07T08:50:10.013Z,95634.58
2019-02-07T08:53:01.710Z,95631.86
2019-02-07T08:55:48.993Z,95622.62
2019-02-07T08:58:49.843Z,95618.50
2019-02-07T09:01:53.496Z,95613.91
2019-02-07T09:04:41.224Z,95617.53
2019-02-07T09:07:33.064Z,95618.45
2019-02-07T09:10:17.789Z,95616.76
2019-02-07T09:13:04.957Z,95619.66
2019-02-07T09:15:56.624Z,95624.31
2019-02-07T09:18:43.768Z,95629.18
2019-02-07T09:21:41.563Z,95621.53
2019-02-07T09:24:39.698Z,95625.93
2019-02-07T09:27:40.667Z,95629.33
2019-02-07T09:30:35.090Z,95635.76
2019-02-07T09:33:29.726Z,95635.56
2019-02-07T09:36:18.213Z,95632.48
2019-02-07T09:39:25.122Z,95627.39
2019-02-07T09:42:19.840Z,95627.28
2019-02-07T09:45:07.325Z,95628.27
2019-02-07T09:47:53.994Z,95627.27
2019-02-07T09:50:51.836Z,95624.60
2019-02-07T09:53:44.834Z,95627.67
2019-02-07T09:56:42.222Z,95623.70
2019-02-07T09:59:46.276Z,95626.55
2019-02-07T10:02:39.898Z,95623.83
2019-02-07T10:05:29.599Z,95615.48
2019-02-07T10:08:17.950Z,95617.02
2019-02-07T10:11:12.468Z,95607.15
2019-02-07T10:13:56.057Z,95606.57
2019-02-07T10:16:53.867Z,95599.94
2019-02-07T10:19:41.218Z,95599.06
2019-02-07T10:22:28.073Z,95595.84
2019-02-07T10:25:19.794Z,95592.16
2019-02-07T10:28:10.452Z,95593.61
2019-02-07T10:31:08.181Z,95581.50
2019-02-07T10:33:55.540Z,95574.41
2019-02-07T10:36:47.296Z,95571.16
2019-02-07T10:39:38.492Z,95571.61
2019-02-07T10:42:29.374Z,95570.42
2019-02-07T10:45:19.307Z,95569.06
2019-02-07T10:48:07.957Z,95565.63
2019-02-07T10:50:59.484Z,95567.15
2019-02-07T10:53:51.252Z,95559.02
2019-02-07T10:56:49.085Z,95564.16
2019-02-07T10:59:37.735Z,95550.00
2019-02-07T11:02:33.643Z,95558.76
2019-02-07T11:05:31.120Z,95552.76
2019-02-07T11:08:37.698Z,95551.83
2019-02-07T11:11:28.985Z,95551.70
2019-02-07T11:14:29.958Z,95544.20
2019-02-07T11:17:27.627Z,95542.09
2019-02-07T11:20:16.465Z,95538.00
2019-02-07T11:23:03.904Z,95530.59
2019-02-07T11:25:52.319Z,95521.53
2019-02-07T11:28:45.725Z,95524.17
2019-02-07T11:31:25.529Z,95522.09
2019-02-07T11:34:06.872Z,95518.41
2019-02-07T11:36:54.050Z,95521.23
2019-02-07T11:39:42.271Z,95514.53
2019-02-07T11:42:29.703Z,95516.70
2019-02-07T11:45:17.593Z,95508.68
2019-02-07T11:48:12.250Z,95506.36
2019-02-07T11:50:56.165Z,95505.63
2019-02-07T11:53:44.784Z,95503.80
2019-02-07T11:56:34.004Z,95498.34
2019-02-07T11:59:21.284Z,95491.94
2019-02-07T12:02:08.811Z,95483.92
2019-02-07T12:05:09.758Z,95477.82
2019-02-07T12:08:07.577Z,95477.53
2019-02-07T12:10:56.073Z,95487.61
2019-02-07T12:13:43.841Z,95489.89
2019-02-07T12:16:42.749Z,95489.64
2019-02-07T12:19:30.137Z,95494.50
2019-02-07T12:22:37.533Z,95499.08
2019-02-07T12:25:41.710Z,95499.67
2019-02-07T12:28:28.947Z,95498.25
2019-02-07T12:31:12.198Z,95484.62
2019-02-07T12:34:06.790Z,95486.99
2019-02-07T12:37:13.939Z,95479.98
2019-02-07T12:39:54.937Z,95476.89
2019-02-07T12:42:55.439Z,95476.19
2019-02-07T12:45:54.157Z,95470.22
2019-02-07T12:48:45.578Z,95472.34
2019-02-07T12:51:32.129Z,95473.34
2019-02-07T12:54:20.453Z,95470.64
2019-02-07T12:57:07.833Z,95474.44
2019-02-07T12:59:56.191Z,95467.80
2019-02-07T13:02:37.837Z,95470.69
2019-02-07T13:05:48.014Z,95468.48
2019-02-07T13:08:40.034Z,95468.02
2019-02-07T13:11:32.645Z,95462.27
2019-02-07T13:14:36.271Z,95450.26
2019-02-07T13:17:25.455Z,95458.03
2019-02-07T13:20:05.618Z,95453.73
2019-02-07T13:23:00.167Z,95449.86
2019-02-07T13:25:51.924Z,95453.42
2019-02-07T13:28:39.271Z,95441.34
2019-02-07T13:31:46.409Z,95441.34
2019-02-07T13:34:33.857Z,95444.81
2019-02-07T13:37:40.745Z,95449.38
2019-02-07T13:40:38.941Z,95438.74
2019-02-07T13:43:37.094Z,95438.74
2019-02-07T13:46:35.404Z,95446.32
2019-02-07T13:49:26.220Z,95444.94
2019-02-07T13:52:09.892Z,95446.28
2019-02-07T13:54:59.101Z,95451.75
2019-02-07T13:57:47.387Z,95451.75
2019-02-07T14:00:36.799Z,95448.94
2019-02-07T14:03:28.936Z,95457.95
2019-02-07T14:06:17.682Z,95448.28
2019-02-07T14:09:06.167Z,95448.28
2019-02-07T14:11:54.777Z,95446.94
2019-02-07T14:14:42.208Z,95448.61
2019-02-07T14:17:28.625Z,95445.39
2019-02-07T14:20:11.273Z,95450.32
2019-02-07T14:22:58.682Z,95452.76
2019-02-07T14:25:46.175Z,95451.25
2019-02-07T14:28:28.416Z,95454.14
2019-02-07T14:31:15.786Z,95444.80
2019-02-07T14:34:10.436Z,95444.80
2019-02-07T14:36:59.057Z,95444.24
2019-02-07T14:39:50.759Z,95437.63
2019-02-07T14:42:39.330Z,95440.98
2019-02-07T14:45:30.374Z,95433.63
2019-02-07T14:48:01.373Z,95431.27
2019-02-07T14:50:31.042Z,95433.16
2019-02-07T14:53:02.064Z,95435.92
2019-02-07T14:55:31.838Z,95437.48
2019-02-07T14:58:01.475Z,95433.52
2019-02-07T15:00:31.142Z,95454.22
2019-02-07T15:03:00.700Z,95433.42
2019-02-07T15:05:31.480Z,95432.44
2019-02-07T15:08:01.530Z,95435.48
2019-02-07T15:10:31.208Z,95436.20
2019-02-07T15:13:01.414Z,95432.61
2019-02-07T15:15:30.979Z,95435.12
2019-02-07T15:18:00.712Z,95441.45
2019-02-07T15:20:30.590Z,95436.82
2019-02-07T15:23:00.546Z,95430.75
2019-02-07T15:25:30.280Z,95435.68
2019-02-07T15:28:00.120Z,95435.36
2019-02-07T15:30:29.793Z,95432.32
2019-02-07T15:32:59.518Z,95430.68
2019-02-07T15:35:32.430Z,95428.24
2019-02-07T15:38:02.055Z,95434.89
2019-02-07T15:40:31.825Z,95432.27
2019-02-07T15:43:01.617Z,95434.79
2019-02-07T15:45:31.330Z,95429.11
2019-02-07T15:48:01.031Z,95424.11
2019-02-07T15:50:37.536Z,95424.83
2019-02-07T15:53:03.453Z,95431.47
2019-02-07T15:55:33.403Z,95423.62
2019-02-07T15:58:02.997Z,95416.33
2019-02-07T16:01:03.973Z,95416.33
2019-02-07T16:03:52.569Z,95427.25
2019-02-07T16:06:22.472Z,95418.68
2019-02-07T16:08:52.115Z,95418.10
2019-02-07T16:11:21.775Z,95424.19
2019-02-07T16:13:51.667Z,95425.59
2019-02-07T16:16:21.505Z,95423.45
2019-02-07T16:18:51.327Z,95422.05
2019-02-07T16:21:21.001Z,95422.05
2019-02-07T16:23:50.667Z,95421.09
2019-02-07T16:26:20.351Z,95419.16
2019-02-07T16:28:50.223Z,95424.95
2019-02-07T16:31:20.065Z,95422.63
2019-02-07T16:33:49.662Z,95430.14
2019-02-07T16:36:19.515Z,95431.70
2019-02-07T16:38:49.526Z,95430.55
2019-02-07T16:41:19.188Z,95428.89
2019-02-07T16:43:49.038Z,95438.22
2019-02-07T16:46:19.099Z,95438.20
2019-02-07T16:48:48.844Z,95446.16
2019-02-07T16:51:18.840Z,95439.86
2019-02-07T16:53:48.750Z,95433.24
2019-02-07T16:56:18.598Z,95439.42
2019-02-07T16:58:48.325Z,95432.49
2019-02-07T17:01:18.202Z,95437.70
2019-02-07T17:03:48.787Z,95448.30
2019-02-07T17:06:18.783Z,95442.73
2019-02-07T17:08:48.616Z,95441.06
2019-02-07T17:11:19.271Z,95443.85
2019-02-07T17:13:48.942Z,95439.55
2019-02-07T17:16:18.878Z,95443.37
2019-02-07T17:18:48.682Z,95444.66
2019-02-07T17:21:18.893Z,95438.27
2019-02-07T17:23:48.799Z,95444.97
2019-02-07T17:26:18.416Z,95432.45
2019-02-07T17:28:48.172Z,95442.09
2019-02-07T17:31:17.930Z,95440.48
2019-02-07T17:33:47.778Z,95445.27
2019-02-07T17:36:17.909Z,95440.16
2019-02-07T17:38:47.638Z,95440.16
2019-02-07T17:41:17.306Z,95446.13
2019-02-07T17:43:46.974Z,95446.13
2019-02-07T17:46:16.491Z,95437.61
2019-02-07T17:48:46.238Z,95437.61
2019-02-07T17:51:22.974Z,95444.70
2019-02-07T17:53:47.592Z,95445.37
2019-02-07T17:56:17.278Z,95445.21
2019-02-07T17:58:47.046Z,95445.21
2019-02-07T18:01:16.879Z,95448.92
2019-02-07T18:03:46.494Z,95449.53
2019-02-07T18:06:16.731Z,95449.53
2019-02-07T18:08:46.508Z,95458.20
2019-02-07T18:11:16.179Z,95463.32
2019-02-07T18:13:45.928Z,95464.43
2019-02-07T18:16:17.352Z,95464.43
2019-02-07T18:18:47.067Z,95466.97
2019-02-07T18:21:16.707Z,95462.77
2019-02-07T18:23:48.094Z,95462.77
2019-02-07T18:26:17.724Z,95465.47
2019-02-07T18:28:47.511Z,95465.66
2019-02-07T18:31:18.462Z,95463.95
2019-02-07T18:33:50.299Z,95463.14
2019-02-07T18:36:19.975Z,95462.64
2019-02-07T18:38:49.861Z,95462.64
2019-02-07T18:41:19.526Z,95463.55
2019-02-07T18:43:51.163Z,95463.55
2019-02-07T18:46:20.827Z,95465.13
2019-02-07T18:48:50.669Z,95463.16
2019-02-07T18:51:20.342Z,95463.16
2019-02-07T18:53:49.836Z,95472.48
2019-02-07T18:56:19.365Z,95479.23
2019-02-07T18:58:49.108Z,95478.23
2019-02-07T19:01:18.976Z,95484.33
2019-02-07T19:03:49.034Z,95484.98
2019-02-07T19:06:18.777Z,95486.91
2019-02-07T19:08:48.461Z,95487.70
2019-02-07T19:11:18.224Z,95498.80
2019-02-07T19:13:47.958Z,95482.77
2019-02-07T19:16:19.206Z,95485.30
2019-02-07T19:18:49.322Z,95485.91
2019-02-07T19:21:19.040Z,95479.16
2019-02-07T19:23:48.893Z,95478.00
2019-02-07T19:26:18.531Z,95490.56
2019-02-07T19:28:48.362Z,95482.33
2019-02-07T19:31:17.992Z,95482.65
2019-02-07T19:33:47.819Z,95484.58
2019-02-07T19:36:17.312Z,95480.44
2019-02-07T19:38:47.154Z,95480.44
2019-02-07T19:41:17.031Z,95466.50
2019-02-07T19:43:46.790Z,95469.78
2019-02-07T19:46:16.459Z,95467.40
2019-02-07T19:48:46.188Z,95479.04
2019-02-07T19:51:15.995Z,95469.43
2019-02-07T19:53:45.786Z,95471.69
2019-02-07T19:56:15.435Z,95471.06
2019-02-07T19:58:45.096Z,95471.06
2019-02-07T20:01:15.028Z,95462.55
2019-02-07T20:03:44.921Z,95455.38
2019-02-07T20:06:15.112Z,95465.93
2019-02-07T20:08:44.826Z,95458.72
2019-02-07T20:11:14.650Z,95458.72
2019-02-07T20:13:44.350Z,95446.38
2019-02-07T20:16:14.098Z,95447.98
2019-02-07T20:18:44.090Z,95447.98
2019-02-07T20:21:13.860Z,95446.05
2019-02-07T20:23:43.448Z,95439.95
2019-02-07T20:26:13.109Z,95439.95
2019-02-07T20:28:42.739Z,95438.02
2019-02-07T20:31:12.333Z,95433.84
2019-02-07T20:33:42.086Z,95436.56
2019-02-07T20:36:11.858Z,95436.35
2019-02-07T20:38:41.571Z,95433.47
2019-02-07T20:41:11.072Z,95432.00
2019-02-07T20:43:40.727Z,95424.30
2019-02-07T20:46:10.308Z,95419.77
2019-02-07T20:48:40.034Z,95419.77
2019-02-07T20:51:09.991Z,95424.07
2019-02-07T20:53:39.750Z,95422.11
2019-02-07T20:56:09.502Z,95417.91
2019-02-07T20:58:39.119Z,95418.23
2019-02-07T21:01:09.082Z,95417.13
2019-02-07T21:03:38.891Z,95411.19
2019-02-07T21:06:08.623Z,95413.56
2019-02-07T21:08:38.251Z,95412.44
2019-02-07T21:11:09.426Z,95403.77
2019-02-07T21:13:39.214Z,95400.11
2019-02-07T21:16:09.028Z,95396.34
2019-02-07T21:18:38.825Z,95396.34
2019-02-07T21:21:08.828Z,95389.95
2019-02-07T21:23:38.375Z,95392.64
2019-02-07T21:26:08.100Z,95394.95
2019-02-07T21:28:37.721Z,95396.84
2019-02-07T21:31:07.646Z,95399.06
2019-02-07T21:33:37.838Z,95394.24
2019-02-07T21:36:07.617Z,95395.05
2019-02-07T21:38:37.581Z,95394.08
2019-02-07T21:41:07.215Z,95395.37
2019-02-07T21:43:36.863Z,95394.56
2019-02-07T21:46:08.915Z,95395.69
2019-02-07T21:48:38.717Z,95397.26
2019-02-07T21:51:08.517Z,95391.95
2019-02-07T21:53:38.639Z,95391.95
2019-02-07T21:56:08.289Z,95397.90
2019-02-07T21:58:37.979Z,95397.90
2019-02-07T22:01:07.786Z,95393.44
2019-02-07T22:03:37.620Z,95383.00
2019-02-07T22:06:07.178Z,95385.57
2019-02-07T22:08:37.203Z,95387.17
2019-02-07T22:11:07.150Z,95392.31
2019-02-07T22:13:36.916Z,95388.78
2019-02-07T22:16:06.708Z,95395.81
2019-02-07T22:18:36.351Z,95393.53
2019-02-07T22:21:06.083Z,95393.53
2019-02-07T22:23:36.025Z,95395.48
2019-02-07T22:26:06.256Z,95391.95
2019-02-07T22:28:35.880Z,95395.05
2019-02-07T22:31:05.857Z,95395.05
2019-02-07T22:33:35.642Z,95386.22
2019-02-07T22:36:05.717Z,95386.22
2019-02-07T22:38:35.555Z,95389.23
2019-02-07T22:41:05.302Z,95389.23
2019-02-07T22:43:34.910Z,95383.61
2019-02-07T22:46:04.865Z,95383.61
2019-02-07T22:48:34.609Z,95377.79
2019-02-07T22:51:04.645Z,95380.52
2019-02-07T22:53:34.230Z,95374.90
2019-02-07T22:56:04.052Z,95378.43
2019-02-07T22:58:34.033Z,95378.43
2019-02-07T23:01:36.548Z,95375.70
2019-02-07T23:04:09.050Z,95378.27
2019-02-07T23:06:38.897Z,95375.22
2019-02-07T23:09:15.400Z,95376.30
2019-02-07T23:11:45.237Z,95367.80
2019-02-07T23:14:15.114Z,95367.80
2019-02-07T23:16:45.123Z,95377.73
2019-02-07T23:19:14.904Z,95378.71
2019-02-07T23:21:44.617Z,95380.31
2019-02-07T23:24:14.504Z,95383.21
2019-02-07T23:26:44.208Z,95383.21
2019-02-07T23:29:13.951Z,95372.00
2019-02-07T23:31:43.646Z,95372.33
2019-02-07T23:34:13.328Z,95367.84
2019-02-07T23:36:43.338Z,95374.53
2019-02-07T23:39:13.542Z,95368.17
2019-02-07T23:41:43.311Z,95369.67
2019-02-07T23:44:13.027Z,95368.72
2019-02-07T23:46:42.799Z,95369.70
2019-02-07T23:49:12.524Z,95371.06
2019-02-07T23:51:42.211Z,95371.39
2019-02-07T23:54:12.192Z,95371.39
2019-02-07T23:56:41.990Z,95351.66
2019-02-07T23:59:11.899Z,95351.66
